Time,TemperatureF,DewpointF,PressureIn,WindDirection,WindDirectionDegrees,WindSpeedMPH,WindSpeedGustMPH,Humidity,HourlyPrecipIn,Conditions,Clouds,dailyrainin,SoftwareType,DateUTC
2013-05-01 00:01:00,36.3,31.3,30.40,SSE,157,0.0,0.0,82,0.00,,,0.00,WUHU21623XXSP,2013-05-01 07:01:00,
2013-05-01 00:06:00,36.3,31.3,30.40,SSE,157,0.0,0.0,82,0.00,,,0.00,WUHU21623XXSP,2013-05-01 07:06:00,
2013-05-01 00:11:00,36.3,31.3,30.40,SSE,157,0.0,0.0,82,0.00,,,0.00,WUHU21623XXSP,2013-05-01 07:11:00,
2013-05-01 00:16:00,36.1,31.1,30.40,SSE,157,0.0,0.0,82,0.00,,,0.00,WUHU21623XXSP,2013-05-01 07:16:00,
2013-05-01 00:21:00,36.1,31.4,30.41,SSE,157,0.0,0.0,83,0.00,,,0.00,WUHU21623XXSP,2013-05-01 07:21:00,
2013-05-01 00:26:00,36.0,31.2,30.41,SSE,157,0.0,0.0,83,0.00,,,0.00,WUHU21623XXSP,2013-05-01 07:26:00,
2013-05-01 00:31:00,35.8,31.1,30.41,SSE,157,0.0,0.0,83,0.00,,,0.00,WUHU21623XXSP,2013-05-01 07:31:00,
2013-05-01 00:36:00,35.4,30.7,30.41,SSE,157,0.0,0.0,83,0.00,,,0.00,WUHU21623XXSP,2013-05-01 07:36:00,
2013-05-01 00:41:00,35.4,30.7,30.41,SSE,157,0.0,0.0,83,0.00,,,0.00,WUHU21623XXSP,2013-05-01 07:41:00,
2013-05-01 00:46:00,35.4,30.7,30.42,SSE,157,0.0,0.0,83,0.00,,,0.00,WUHU21623XXSP,2013-05-01 07:46:00,
2013-05-01 00:51:00,35.2,30.8,30.42,SSE,157,0.0,0.0,84,0.00,,,0.00,WUHU21623XXSP,2013-05-01 07:51:00,
2013-05-01 00:56:00,35.2,30.8,30.43,SSE,157,0.0,0.0,84,0.00,,,0.00,WUHU21623XXSP,2013-05-01 07:56:00,
2013-05-01 01:01:00,35.2,30.8,30.43,SSE,157,0.0,0.0,84,0.00,,,0.00,WUHU21623XXSP,2013-05-01 08:01:00,
2013-05-01 01:06:00,35.1,30.6,30.43,SSE,157,0.0,0.0,84,0.00,,,0.00,WUHU21623XXSP,2013-05-01 08:06:00,
2013-05-01 01:11:00,35.1,30.9,30.43,SSE,157,0.0,0.0,85,0.00,,,0.00,WUHU21623XXSP,2013-05-01 08:11:00,
2013-05-01 01:16:00,34.9,30.7,30.43,SSE,157,0.0,0.0,85,0.00,,,0.00,WUHU21623XXSP,2013-05-01 08:16:00,
2013-05-01 01:21:00,34.9,30.7,30.43,SSE,157,0.0,0.0,85,0.00,,,0.00,WUHU21623XXSP,2013-05-01 08:21:00,
2013-05-01 01:26:00,34.9,30.7,30.43,SSE,157,0.0,0.0,85,0.00,,,0.00,WUHU21623XXSP,2013-05-01 08:26:00,
2013-05-01 01:31:00,35.1,30.9,30.43,SSE,157,0.0,0.0,85,0.00,,,0.00,WUHU21623XXSP,2013-05-01 08:31:00,
2013-05-01 01:36:00,34.9,30.7,30.43,SSE,157,0.0,0.0,85,0.00,,,0.00,WUHU21623XXSP,2013-05-01 08:36:00,
2013-05-01 01:41:00,34.9,30.7,30.43,SSE,157,0.0,0.0,85,0.00,,,0.00,WUHU21623XXSP,2013-05-01 08:41:00,
2013-05-01 01:46:00,34.9,30.7,30.43,SSE,157,0.0,0.0,85,0.00,,,0.00,WUHU21623XXSP,2013-05-01 08:46:00,
2013-05-01 01:51:00,34.9,30.7,30.44,SSE,157,0.0,0.0,85,0.00,,,0.00,WUHU21623XXSP,2013-05-01 08:51:00,
2013-05-01 01:56:00,34.7,30.6,30.44,SSE,157,0.0,0.0,85,0.00,,,0.00,WUHU21623XXSP,2013-05-01 08:56:00,
2013-05-01 02:01:00,34.5,30.4,30.44,SSE,157,0.0,0.0,85,0.00,,,0.00,WUHU21623XXSP,2013-05-01 09:01:00,
2013-05-01 02:06:00,34.5,30.4,30.44,SSE,157,0.0,0.0,85,0.00,,,0.00,WUHU21623XXSP,2013-05-01 09:06:00,
2013-05-01 02:11:00,34.5,30.4,30.44,SSE,157,0.0,0.0,85,0.00,,,0.00,WUHU21623XXSP,2013-05-01 09:11:00,
2013-05-01 02:16:00,34.3,30.2,30.44,SSE,157,0.0,0.0,85,0.00,,,0.00,WUHU21623XXSP,2013-05-01 09:16:00,
2013-05-01 02:21:00,34.3,30.2,30.45,SSE,157,0.0,0.0,85,0.00,,,0.00,WUHU21623XXSP,2013-05-01 09:21:00,
2013-05-01 02:26:00,34.3,30.5,30.45,SSE,157,0.0,0.0,86,0.00,,,0.00,WUHU21623XXSP,2013-05-01 09:26:00,
2013-05-01 02:31:00,34.3,30.5,30.44,SSE,157,0.0,0.0,86,0.00,,,0.00,WUHU21623XXSP,2013-05-01 09:31:00,
2013-05-01 02:36:00,34.3,30.5,30.45,SSE,157,0.0,0.0,86,0.00,,,0.00,WUHU21623XXSP,2013-05-01 09:36:00,
2013-05-01 02:41:00,34.3,30.5,30.45,SSE,157,0.0,0.0,86,0.00,,,0.00,WUHU21623XXSP,2013-05-01 09:41:00,
2013-05-01 02:46:00,34.3,30.5,30.45,SSE,157,0.0,0.0,86,0.00,,,0.00,WUHU21623XXSP,2013-05-01 09:46:00,
2013-05-01 02:51:00,34.3,30.5,30.45,SSE,157,0.0,0.0,86,0.00,,,0.00,WUHU21623XXSP,2013-05-01 09:51:00,
2013-05-01 02:56:00,34.3,30.5,30.45,SSE,157,0.0,0.0,86,0.00,,,0.00,WUHU21623XXSP,2013-05-01 09:56:00,
2013-05-01 03:01:00,34.3,30.5,30.45,SSE,157,0.0,0.0,86,0.00,,,0.00,WUHU21623XXSP,2013-05-01 10:01:00,
2013-05-01 03:06:00,34.0,30.3,30.45,SSE,157,0.0,0.0,86,0.00,,,0.00,WUHU21623XXSP,2013-05-01 10:06:00,
2013-05-01 03:11:00,33.8,29.9,30.45,SSE,157,0.0,0.0,86,0.00,,,0.00,WUHU21623XXSP,2013-05-01 10:11:00,
2013-05-01 03:16:00,33.6,29.8,30.45,SSE,157,0.0,0.0,86,0.00,,,0.00,WUHU21623XXSP,2013-05-01 10:16:00,
2013-05-01 03:21:00,33.6,29.8,30.45,SSE,157,0.0,0.0,86,0.00,,,0.00,WUHU21623XXSP,2013-05-01 10:21:00,
2013-05-01 03:26:00,33.4,29.6,30.45,SSE,157,0.0,0.0,86,0.00,,,0.00,WUHU21623XXSP,2013-05-01 10:26:00,
2013-05-01 03:31:00,33.4,29.9,30.45,SSE,157,0.0,0.0,87,0.00,,,0.00,WUHU21623XXSP,2013-05-01 10:31:00,
2013-05-01 03:36:00,33.4,29.9,30.45,SSE,157,0.0,0.0,87,0.00,,,0.00,WUHU21623XXSP,2013-05-01 10:36:00,
2013-05-01 03:41:00,33.4,29.9,30.45,SSE,157,0.0,0.0,87,0.00,,,0.00,WUHU21623XXSP,2013-05-01 10:41:00,
2013-05-01 03:46:00,33.4,29.9,30.45,SE,135,0.0,0.0,87,0.00,,,0.00,WUHU21623XXSP,2013-05-01 10:46:00,
2013-05-01 03:51:00,33.6,30.1,30.45,SE,135,0.0,0.0,87,0.00,,,0.00,WUHU21623XXSP,2013-05-01 10:51:00,
2013-05-01 03:56:00,33.4,29.9,30.45,SE,135,0.0,0.0,87,0.00,,,0.00,WUHU21623XXSP,2013-05-01 10:56:00,
2013-05-01 04:01:00,33.3,29.8,30.45,SE,135,0.0,0.0,87,0.00,,,0.00,WUHU21623XXSP,2013-05-01 11:01:00,
2013-05-01 04:06:00,32.9,29.4,30.45,SE,135,0.0,0.0,87,0.00,,,0.00,WUHU21623XXSP,2013-05-01 11:06:00,
2013-05-01 04:11:00,32.9,29.4,30.46,SE,135,0.0,0.0,87,0.00,,,0.00,WUHU21623XXSP,2013-05-01 11:11:00,
2013-05-01 04:16:00,32.7,29.3,30.46,SE,135,0.0,0.0,87,0.00,,,0.00,WUHU21623XXSP,2013-05-01 11:16:00,
2013-05-01 04:21:00,32.7,29.3,30.46,SE,135,0.0,0.0,87,0.00,,,0.00,WUHU21623XXSP,2013-05-01 11:21:00,
2013-05-01 04:26:00,32.9,29.4,30.46,SE,135,0.0,0.0,87,0.00,,,0.00,WUHU21623XXSP,2013-05-01 11:26:00,
2013-05-01 04:31:00,32.9,29.4,30.46,SE,135,0.0,0.0,87,0.00,,,0.00,WUHU21623XXSP,2013-05-01 11:31:00,
2013-05-01 04:36:00,33.1,29.9,30.46,SE,135,0.0,0.0,88,0.00,,,0.00,WUHU21623XXSP,2013-05-01 11:36:00,
2013-05-01 04:41:00,32.9,29.4,30.46,SE,135,0.0,0.0,87,0.00,,,0.00,WUHU21623XXSP,2013-05-01 11:41:00,
2013-05-01 04:46:00,32.7,29.4,30.46,SE,135,0.0,0.0,87,0.00,,,0.00,WUHU21623XXSP,2013-05-01 11:46:00,
2013-05-01 04:51:00,32.7,29.3,30.47,SE,135,0.0,0.0,87,0.00,,,0.00,WUHU21623XXSP,2013-05-01 11:51:00,
2013-05-01 04:56:00,32.7,29.3,30.47,SE,135,0.0,0.0,87,0.00,,,0.00,WUHU21623XXSP,2013-05-01 11:56:00,
2013-05-01 05:01:00,32.5,29.1,30.47,SE,135,0.0,0.0,87,0.00,,,0.00,WUHU21623XXSP,2013-05-01 12:01:00,
2013-05-01 05:06:00,32.5,29.1,30.48,SE,135,0.0,0.0,87,0.00,,,0.00,WUHU21623XXSP,2013-05-01 12:06:00,
2013-05-01 05:11:00,32.4,28.9,30.47,SE,135,0.0,0.0,87,0.00,,,0.00,WUHU21623XXSP,2013-05-01 12:11:00,
2013-05-01 05:16:00,32.4,28.9,30.47,SE,135,0.0,0.0,87,0.00,,,0.00,WUHU21623XXSP,2013-05-01 12:16:00,
2013-05-01 05:21:00,32.4,29.2,30.48,SE,135,0.0,0.0,88,0.00,,,0.00,WUHU21623XXSP,2013-05-01 12:21:00,
2013-05-01 05:26:00,32.4,29.2,30.48,SE,135,0.0,0.0,88,0.00,,,0.00,WUHU21623XXSP,2013-05-01 12:26:00,
2013-05-01 05:31:00,32.4,29.2,30.48,SE,135,0.0,0.0,88,0.00,,,0.00,WUHU21623XXSP,2013-05-01 12:31:00,
2013-05-01 05:36:00,32.4,29.2,30.48,SE,135,0.0,0.0,88,0.00,,,0.00,WUHU21623XXSP,2013-05-01 12:36:00,
2013-05-01 05:41:00,32.2,29.1,30.48,SE,135,0.0,0.0,88,0.00,,,0.00,WUHU21623XXSP,2013-05-01 12:41:00,
2013-05-01 05:46:00,32.2,29.1,30.48,SE,135,0.0,0.0,88,0.00,,,0.00,WUHU21623XXSP,2013-05-01 12:46:00,
2013-05-01 05:51:00,32.0,29.1,30.48,SE,135,0.0,0.0,88,0.00,,,0.00,WUHU21623XXSP,2013-05-01 12:51:00,
2013-05-01 05:56:00,31.8,28.7,30.48,SE,135,0.0,0.0,88,0.00,,,0.00,WUHU21623XXSP,2013-05-01 12:56:00,
2013-05-01 06:01:00,31.8,28.7,30.48,SE,135,0.0,0.0,88,0.00,,,0.00,WUHU21623XXSP,2013-05-01 13:01:00,
2013-05-01 06:06:00,31.8,28.7,30.49,SE,135,0.0,0.0,88,0.00,,,0.00,WUHU21623XXSP,2013-05-01 13:06:00,
2013-05-01 06:11:00,31.8,28.7,30.49,SE,135,0.0,0.0,88,0.00,,,0.00,WUHU21623XXSP,2013-05-01 13:11:00,
2013-05-01 06:16:00,31.8,28.7,30.49,SE,135,0.0,0.0,88,0.00,,,0.00,WUHU21623XXSP,2013-05-01 13:16:00,
2013-05-01 06:21:00,31.8,28.7,30.49,SE,135,0.0,0.0,88,0.00,,,0.00,WUHU21623XXSP,2013-05-01 13:21:00,
2013-05-01 06:26:00,31.8,28.7,30.49,SE,135,0.0,0.0,88,0.00,,,0.00,WUHU21623XXSP,2013-05-01 13:26:00,
2013-05-01 06:31:00,31.8,28.7,30.49,SE,135,0.0,0.0,88,0.00,,,0.00,WUHU21623XXSP,2013-05-01 13:31:00,
2013-05-01 06:36:00,32.0,29.2,30.50,SE,135,0.0,0.0,89,0.00,,,0.00,WUHU21623XXSP,2013-05-01 13:36:00,
2013-05-01 06:41:00,32.2,29.4,30.50,SE,135,0.0,0.0,89,0.00,,,0.00,WUHU21623XXSP,2013-05-01 13:41:00,
2013-05-01 06:46:00,32.2,29.4,30.50,SE,135,0.0,0.0,89,0.00,,,0.00,WUHU21623XXSP,2013-05-01 13:46:00,
2013-05-01 06:51:00,32.2,29.4,30.51,SE,135,0.0,0.0,89,0.00,,,0.00,WUHU21623XXSP,2013-05-01 13:51:00,
2013-05-01 06:56:00,32.2,29.4,30.50,SE,135,0.0,0.0,89,0.00,,,0.00,WUHU21623XXSP,2013-05-01 13:56:00,
2013-05-01 07:01:00,32.4,29.4,30.51,SE,135,0.0,0.0,89,0.00,,,0.00,WUHU21623XXSP,2013-05-01 14:01:00,
2013-05-01 07:06:00,32.5,29.5,30.51,SE,135,0.0,0.0,89,0.00,,,0.00,WUHU21623XXSP,2013-05-01 14:06:00,
2013-05-01 07:11:00,32.5,29.7,30.51,SE,135,0.0,0.0,89,0.00,,,0.00,WUHU21623XXSP,2013-05-01 14:11:00,
2013-05-01 07:16:00,32.7,29.8,30.51,SE,135,0.0,0.0,89,0.00,,,0.00,WUHU21623XXSP,2013-05-01 14:16:00,
2013-05-01 07:21:00,32.9,30.0,30.51,SE,135,0.0,0.0,89,0.00,,,0.00,WUHU21623XXSP,2013-05-01 14:21:00,
2013-05-01 07:26:00,33.1,30.2,30.51,SE,135,0.0,0.0,89,0.00,,,0.00,WUHU21623XXSP,2013-05-01 14:26:00,
2013-05-01 07:31:00,33.3,30.3,30.51,SE,135,0.0,0.0,89,0.00,,,0.00,WUHU21623XXSP,2013-05-01 14:31:00,
2013-05-01 07:36:00,33.4,30.8,30.51,SE,135,0.0,0.0,90,0.00,,,0.00,WUHU21623XXSP,2013-05-01 14:36:00,
2013-05-01 07:41:00,33.6,30.9,30.51,SE,135,0.0,0.0,90,0.00,,,0.00,WUHU21623XXSP,2013-05-01 14:41:00,
2013-05-01 07:46:00,33.6,30.9,30.52,SE,135,0.0,0.0,90,0.00,,,0.00,WUHU21623XXSP,2013-05-01 14:46:00,
2013-05-01 07:51:00,34.0,31.1,30.52,SE,135,0.0,0.0,90,0.00,,,0.00,WUHU21623XXSP,2013-05-01 14:51:00,
2013-05-01 07:56:00,34.2,31.5,30.52,SE,135,0.0,0.0,90,0.00,,,0.00,WUHU21623XXSP,2013-05-01 14:56:00,
2013-05-01 08:01:00,34.3,31.6,30.52,SE,135,0.0,0.0,90,0.00,,,0.00,WUHU21623XXSP,2013-05-01 15:01:00,
2013-05-01 08:06:00,34.9,32.5,30.52,SE,135,0.0,0.0,91,0.00,,,0.00,WUHU21623XXSP,2013-05-01 15:06:00,
2013-05-01 08:11:00,35.4,33.0,30.52,SE,135,0.0,0.0,91,0.00,,,0.00,WUHU21623XXSP,2013-05-01 15:11:00,
2013-05-01 08:16:00,36.3,33.9,30.52,SE,135,0.0,0.0,91,0.00,,,0.00,WUHU21623XXSP,2013-05-01 15:16:00,
2013-05-01 08:21:00,36.9,34.4,30.52,SE,135,0.0,0.0,91,0.00,,,0.00,WUHU21623XXSP,2013-05-01 15:21:00,
2013-05-01 08:26:00,37.2,34.8,30.52,SE,135,0.0,0.0,91,0.00,,,0.00,WUHU21623XXSP,2013-05-01 15:26:00,
2013-05-01 08:31:00,38.1,35.4,30.52,SE,135,0.0,0.0,90,0.00,,,0.00,WUHU21623XXSP,2013-05-01 15:31:00,
2013-05-01 08:36:00,38.8,36.1,30.52,SE,135,0.0,0.0,90,0.00,,,0.00,WUHU21623XXSP,2013-05-01 15:36:00,
2013-05-01 08:41:00,39.9,37.2,30.52,SE,135,0.0,0.0,90,0.00,,,0.00,WUHU21623XXSP,2013-05-01 15:41:00,
2013-05-01 08:46:00,41.2,38.2,30.53,SE,135,0.0,0.0,89,0.00,,,0.00,WUHU21623XXSP,2013-05-01 15:46:00,
2013-05-01 08:51:00,43.2,39.5,30.53,SE,135,0.0,0.0,87,0.00,,,0.00,WUHU21623XXSP,2013-05-01 15:51:00,
2013-05-01 08:56:00,44.6,40.4,30.53,SE,135,0.0,0.0,85,0.00,,,0.00,WUHU21623XXSP,2013-05-01 15:56:00,
2013-05-01 09:01:00,45.5,40.7,30.53,SE,135,0.0,0.0,83,0.00,,,0.00,WUHU21623XXSP,2013-05-01 16:01:00,
2013-05-01 09:06:00,46.2,39.8,30.53,ENE,67,0.0,0.0,78,0.00,,,0.00,WUHU21623XXSP,2013-05-01 16:06:00,
2013-05-01 09:11:00,46.9,40.4,30.52,ENE,67,0.0,0.0,78,0.00,,,0.00,WUHU21623XXSP,2013-05-01 16:11:00,
2013-05-01 09:16:00,48.0,40.7,30.52,ENE,67,0.0,0.0,76,0.00,,,0.00,WUHU21623XXSP,2013-05-01 16:16:00,
2013-05-01 09:21:00,49.6,41.6,30.52,NE,45,0.0,0.0,74,0.00,,,0.00,WUHU21623XXSP,2013-05-01 16:21:00,
2013-05-01 09:26:00,50.5,41.9,30.52,NNW,337,0.0,0.0,72,0.00,,,0.00,WUHU21623XXSP,2013-05-01 16:26:00,
2013-05-01 09:31:00,51.1,42.1,30.52,North,0,0.0,0.0,71,0.00,,,0.00,WUHU21623XXSP,2013-05-01 16:31:00,
2013-05-01 09:36:00,52.0,42.2,30.52,NNW,337,0.0,0.0,69,0.00,,,0.00,WUHU21623XXSP,2013-05-01 16:36:00,
2013-05-01 09:41:00,52.5,42.7,30.52,NNW,337,0.0,0.0,69,0.00,,,0.00,WUHU21623XXSP,2013-05-01 16:41:00,
2013-05-01 09:46:00,53.4,43.1,30.52,NNW,337,0.0,0.0,68,0.00,,,0.00,WUHU21623XXSP,2013-05-01 16:46:00,
2013-05-01 09:51:00,54.1,43.0,30.52,North,0,0.0,0.0,66,0.00,,,0.00,WUHU21623XXSP,2013-05-01 16:51:00,
2013-05-01 09:56:00,54.5,42.9,30.52,North,0,0.0,0.0,65,0.00,,,0.00,WUHU21623XXSP,2013-05-01 16:56:00,
2013-05-01 10:01:00,55.0,43.4,30.52,North,0,0.0,0.0,65,0.00,,,0.00,WUHU21623XXSP,2013-05-01 17:01:00,
2013-05-01 10:06:00,55.6,42.7,30.52,North,0,0.0,0.0,62,0.00,,,0.00,WUHU21623XXSP,2013-05-01 17:06:00,
2013-05-01 10:11:00,55.8,42.9,30.52,SW,225,0.0,0.0,62,0.00,,,0.00,WUHU21623XXSP,2013-05-01 17:11:00,
2013-05-01 10:16:00,55.9,43.1,30.52,WSW,247,0.0,0.0,62,0.00,,,0.00,WUHU21623XXSP,2013-05-01 17:16:00,
2013-05-01 10:21:00,56.5,43.2,30.52,NNE,22,0.0,0.0,61,0.00,,,0.00,WUHU21623XXSP,2013-05-01 17:21:00,
2013-05-01 10:26:00,56.5,41.4,30.52,NE,45,0.0,0.0,57,0.00,,,0.00,WUHU21623XXSP,2013-05-01 17:26:00,
2013-05-01 10:31:00,56.5,42.8,30.51,NE,45,0.0,0.0,60,0.00,,,0.00,WUHU21623XXSP,2013-05-01 17:31:00,
2013-05-01 10:36:00,56.8,42.7,30.52,North,0,0.0,0.0,59,0.00,,,0.00,WUHU21623XXSP,2013-05-01 17:36:00,
2013-05-01 10:41:00,57.0,43.3,30.52,North,0,0.0,0.0,60,0.00,,,0.00,WUHU21623XXSP,2013-05-01 17:41:00,
2013-05-01 10:46:00,57.0,42.4,30.52,NE,45,0.0,0.0,58,0.00,,,0.00,WUHU21623XXSP,2013-05-01 17:46:00,
2013-05-01 10:51:00,57.4,43.2,30.52,North,0,0.0,0.0,59,0.00,,,0.00,WUHU21623XXSP,2013-05-01 17:51:00,
2013-05-01 10:56:00,57.4,43.2,30.52,NNE,22,0.0,0.0,59,0.00,,,0.00,WUHU21623XXSP,2013-05-01 17:56:00,
2013-05-01 11:01:00,57.2,42.6,30.52,West,270,0.0,0.0,58,0.00,,,0.00,WUHU21623XXSP,2013-05-01 18:01:00,
2013-05-01 11:06:00,57.0,42.4,30.52,NNE,22,0.0,0.0,58,0.00,,,0.00,WUHU21623XXSP,2013-05-01 18:06:00,
2013-05-01 11:11:00,57.4,43.2,30.52,SW,225,0.0,0.0,59,0.00,,,0.00,WUHU21623XXSP,2013-05-01 18:11:00,
2013-05-01 11:16:00,57.4,42.3,30.52,SW,225,0.0,0.0,57,0.00,,,0.00,WUHU21623XXSP,2013-05-01 18:16:00,
2013-05-01 11:21:00,57.6,42.9,30.52,NE,45,0.0,0.0,58,0.00,,,0.00,WUHU21623XXSP,2013-05-01 18:21:00,
2013-05-01 11:26:00,57.9,42.8,30.52,NE,45,0.0,0.0,57,0.00,,,0.00,WUHU21623XXSP,2013-05-01 18:26:00,
2013-05-01 11:31:00,58.3,44.0,30.52,SW,225,0.0,0.0,59,0.00,,,0.00,WUHU21623XXSP,2013-05-01 18:31:00,
2013-05-01 11:36:00,58.6,43.4,30.51,WSW,247,0.0,0.0,57,0.00,,,0.00,WUHU21623XXSP,2013-05-01 18:36:00,
2013-05-01 11:41:00,58.6,42.5,30.51,SE,135,0.0,0.0,55,0.00,,,0.00,WUHU21623XXSP,2013-05-01 18:41:00,
2013-05-01 11:46:00,58.8,42.2,30.51,NE,45,0.0,0.0,54,0.00,,,0.00,WUHU21623XXSP,2013-05-01 18:46:00,
2013-05-01 11:51:00,58.8,42.6,30.51,North,0,0.0,0.0,55,0.00,,,0.00,WUHU21623XXSP,2013-05-01 18:51:00,
2013-05-01 11:56:00,58.8,42.6,30.51,North,0,0.0,0.0,55,0.00,,,0.00,WUHU21623XXSP,2013-05-01 18:56:00,
2013-05-01 12:01:00,58.8,42.2,30.51,SW,225,0.0,0.0,54,0.00,,,0.00,WUHU21623XXSP,2013-05-01 19:01:00,
2013-05-01 12:06:00,59.0,42.3,30.51,NNE,22,0.0,0.0,54,0.00,,,0.00,WUHU21623XXSP,2013-05-01 19:06:00,
2013-05-01 12:11:00,59.2,42.5,30.51,NNW,337,0.0,0.0,54,0.00,,,0.00,WUHU21623XXSP,2013-05-01 19:11:00,
2013-05-01 12:16:00,59.2,42.0,30.51,NNW,337,0.0,0.0,52,0.00,,,0.00,WUHU21623XXSP,2013-05-01 19:16:00,
2013-05-01 12:21:00,59.0,42.0,30.51,West,270,0.0,0.0,54,0.00,,,0.00,WUHU21623XXSP,2013-05-01 19:21:00,
2013-05-01 12:26:00,59.4,42.5,30.51,West,270,0.0,0.0,54,0.00,,,0.00,WUHU21623XXSP,2013-05-01 19:26:00,
2013-05-01 12:31:00,59.7,43.0,30.51,SW,225,0.0,0.0,54,0.00,,,0.00,WUHU21623XXSP,2013-05-01 19:31:00,
2013-05-01 12:36:00,60.1,42.4,30.51,NNW,337,0.0,0.0,52,0.00,,,0.00,WUHU21623XXSP,2013-05-01 19:36:00,
2013-05-01 12:41:00,60.4,42.7,30.51,NNW,337,0.0,0.0,52,0.00,,,0.00,WUHU21623XXSP,2013-05-01 19:41:00,
2013-05-01 12:46:00,60.4,42.2,30.50,SSE,157,0.0,0.0,51,0.00,,,0.00,WUHU21623XXSP,2013-05-01 19:46:00,
2013-05-01 12:51:00,60.6,42.4,30.51,WSW,247,0.0,0.0,52,0.00,,,0.00,WUHU21623XXSP,2013-05-01 19:51:00,
2013-05-01 12:56:00,61.0,43.2,30.51,North,0,0.0,0.0,52,0.00,,,0.00,WUHU21623XXSP,2013-05-01 19:56:00,
2013-05-01 13:01:00,61.0,42.7,30.51,NW,315,0.0,0.0,51,0.00,,,0.00,WUHU21623XXSP,2013-05-01 20:01:00,
2013-05-01 13:06:00,61.0,41.7,30.50,NNW,337,0.0,0.0,49,0.00,,,0.00,WUHU21623XXSP,2013-05-01 20:06:00,
2013-05-01 13:11:00,61.2,41.8,30.50,SE,135,0.0,0.0,49,0.00,,,0.00,WUHU21623XXSP,2013-05-01 20:11:00,
2013-05-01 13:16:00,61.5,43.2,30.50,North,0,0.0,0.0,51,0.00,,,0.00,WUHU21623XXSP,2013-05-01 20:16:00,
2013-05-01 13:21:00,61.5,42.7,30.50,North,0,0.0,0.0,50,0.00,,,0.00,WUHU21623XXSP,2013-05-01 20:21:00,
2013-05-01 13:26:00,61.5,41.6,30.50,NNE,22,0.0,0.0,48,0.00,,,0.00,WUHU21623XXSP,2013-05-01 20:26:00,
2013-05-01 13:31:00,61.7,41.7,30.50,North,0,0.0,0.0,48,0.00,,,0.00,WUHU21623XXSP,2013-05-01 20:31:00,
2013-05-01 13:36:00,61.7,40.6,30.50,NNW,337,0.0,0.0,46,0.00,,,0.00,WUHU21623XXSP,2013-05-01 20:36:00,
2013-05-01 13:41:00,61.7,41.7,30.50,NNE,22,0.0,0.0,48,0.00,,,0.00,WUHU21623XXSP,2013-05-01 20:41:00,
2013-05-01 13:46:00,61.9,41.3,30.51,North,0,0.0,0.0,47,0.00,,,0.00,WUHU21623XXSP,2013-05-01 20:46:00,
2013-05-01 13:51:00,62.2,41.6,30.50,South,180,0.0,0.0,47,0.00,,,0.00,WUHU21623XXSP,2013-05-01 20:51:00,
2013-05-01 13:56:00,62.4,42.4,30.50,NNW,337,0.0,0.0,48,0.00,,,0.00,WUHU21623XXSP,2013-05-01 20:56:00,
2013-05-01 14:01:00,62.4,41.8,30.50,NNW,337,0.0,0.0,47,0.00,,,0.00,WUHU21623XXSP,2013-05-01 21:01:00,
2013-05-01 14:06:00,62.6,43.1,30.51,West,270,0.0,0.0,49,0.00,,,0.00,WUHU21623XXSP,2013-05-01 21:06:00,
2013-05-01 14:11:00,63.0,42.9,30.50,WNW,292,0.0,0.0,48,0.00,,,0.00,WUHU21623XXSP,2013-05-01 21:11:00,
2013-05-01 14:16:00,63.1,42.5,30.50,North,0,0.0,0.0,47,0.00,,,0.00,WUHU21623XXSP,2013-05-01 21:16:00,
2013-05-01 14:21:00,63.0,41.7,30.50,North,0,0.0,0.0,46,0.00,,,0.00,WUHU21623XXSP,2013-05-01 21:21:00,
2013-05-01 14:26:00,63.0,42.3,30.50,NW,315,0.0,0.0,47,0.00,,,0.00,WUHU21623XXSP,2013-05-01 21:26:00,
2013-05-01 14:31:00,62.8,42.7,30.50,WSW,247,0.0,0.0,48,0.00,,,0.00,WUHU21623XXSP,2013-05-01 21:31:00,
2013-05-01 14:36:00,62.8,43.3,30.50,SW,225,0.0,0.0,49,0.00,,,0.00,WUHU21623XXSP,2013-05-01 21:36:00,
2013-05-01 14:41:00,62.8,43.3,30.50,West,270,0.0,0.0,49,0.00,,,0.00,WUHU21623XXSP,2013-05-01 21:41:00,
2013-05-01 14:46:00,63.0,44.0,30.50,NNW,337,0.0,0.0,50,0.00,,,0.00,WUHU21623XXSP,2013-05-01 21:46:00,
2013-05-01 14:51:00,63.0,42.9,30.50,NNE,22,0.0,0.0,49,0.00,,,0.00,WUHU21623XXSP,2013-05-01 21:51:00,
2013-05-01 14:56:00,63.0,42.9,30.50,NNW,337,0.0,0.0,48,0.00,,,0.00,WUHU21623XXSP,2013-05-01 21:56:00,
2013-05-01 15:01:00,63.0,42.9,30.50,South,180,0.0,0.0,48,0.00,,,0.00,WUHU21623XXSP,2013-05-01 22:01:00,
2013-05-01 15:06:00,62.8,43.3,30.50,NNW,337,0.0,0.0,49,0.00,,,0.00,WUHU21623XXSP,2013-05-01 22:06:00,
2013-05-01 15:11:00,63.0,43.4,30.50,NNW,337,0.0,0.0,49,0.00,,,0.00,WUHU21623XXSP,2013-05-01 22:11:00,
2013-05-01 15:16:00,62.8,42.7,30.50,WNW,292,0.0,0.0,48,0.00,,,0.00,WUHU21623XXSP,2013-05-01 22:16:00,
2013-05-01 15:21:00,63.0,42.3,30.50,WSW,247,0.0,0.0,47,0.00,,,0.00,WUHU21623XXSP,2013-05-01 22:21:00,
2013-05-01 15:26:00,63.0,43.4,30.49,WNW,292,0.0,0.0,49,0.00,,,0.00,WUHU21623XXSP,2013-05-01 22:26:00,
2013-05-01 15:31:00,63.1,43.6,30.50,South,180,0.0,0.0,49,0.00,,,0.00,WUHU21623XXSP,2013-05-01 22:31:00,
2013-05-01 15:36:00,63.3,43.8,30.50,WSW,247,0.0,0.0,49,0.00,,,0.00,WUHU21623XXSP,2013-05-01 22:36:00,
2013-05-01 15:41:00,63.3,43.2,30.50,North,0,0.0,0.0,48,0.00,,,0.00,WUHU21623XXSP,2013-05-01 22:41:00,
2013-05-01 15:46:00,63.5,43.4,30.49,NNW,337,0.0,0.0,48,0.00,,,0.00,WUHU21623XXSP,2013-05-01 22:46:00,
2013-05-01 15:51:00,63.7,42.8,30.50,NNW,337,0.0,0.0,47,0.00,,,0.00,WUHU21623XXSP,2013-05-01 22:51:00,
2013-05-01 15:56:00,63.7,42.9,30.49,NW,315,0.0,0.0,47,0.00,,,0.00,WUHU21623XXSP,2013-05-01 22:56:00,
2013-05-01 16:01:00,63.7,42.9,30.49,West,270,0.0,0.0,47,0.00,,,0.00,WUHU21623XXSP,2013-05-01 23:01:00,
2013-05-01 16:06:00,63.5,43.9,30.49,WSW,247,0.0,0.0,49,0.00,,,0.00,WUHU21623XXSP,2013-05-01 23:06:00,
2013-05-01 16:11:00,63.7,44.1,30.49,WSW,247,0.0,0.0,49,0.00,,,0.00,WUHU21623XXSP,2013-05-01 23:11:00,
2013-05-01 16:16:00,63.7,43.5,30.49,WSW,247,0.0,0.0,48,0.00,,,0.00,WUHU21623XXSP,2013-05-01 23:16:00,
2013-05-01 16:21:00,63.5,42.8,30.49,NNW,337,0.0,0.0,47,0.00,,,0.00,WUHU21623XXSP,2013-05-01 23:21:00,
2013-05-01 16:26:00,63.3,42.6,30.49,North,0,0.0,0.0,47,0.00,,,0.00,WUHU21623XXSP,2013-05-01 23:26:00,
2013-05-01 16:31:00,63.3,42.6,30.49,North,0,0.0,0.0,47,0.00,,,0.00,WUHU21623XXSP,2013-05-01 23:31:00,
2013-05-01 16:36:00,63.1,42.5,30.49,WSW,247,0.0,0.0,47,0.00,,,0.00,WUHU21623XXSP,2013-05-01 23:36:00,
2013-05-01 16:41:00,63.1,43.6,30.49,SW,225,0.0,0.0,49,0.00,,,0.00,WUHU21623XXSP,2013-05-01 23:41:00,
2013-05-01 16:46:00,63.1,43.0,30.49,WSW,247,0.0,0.0,48,0.00,,,0.00,WUHU21623XXSP,2013-05-01 23:46:00,
2013-05-01 16:51:00,63.0,42.9,30.49,WSW,247,0.0,0.0,48,0.00,,,0.00,WUHU21623XXSP,2013-05-01 23:51:00,
2013-05-01 16:56:00,63.0,43.4,30.49,SSW,202,0.0,0.0,49,0.00,,,0.00,WUHU21623XXSP,2013-05-01 23:56:00,
2013-05-01 17:01:00,63.0,42.9,30.49,WSW,247,0.0,0.0,48,0.00,,,0.00,WUHU21623XXSP,2013-05-02 00:01:00,
2013-05-01 17:06:00,62.6,42.0,30.49,West,270,0.0,0.0,47,0.00,,,0.00,WUHU21623XXSP,2013-05-02 00:06:00,
2013-05-01 17:11:00,62.4,41.8,30.49,NNW,337,0.0,0.0,47,0.00,,,0.00,WUHU21623XXSP,2013-05-02 00:11:00,
2013-05-01 17:16:00,62.4,41.8,30.49,NNW,337,0.0,0.0,47,0.00,,,0.00,WUHU21623XXSP,2013-05-02 00:16:00,
2013-05-01 17:21:00,62.2,41.6,30.48,North,0,0.0,0.0,47,0.00,,,0.00,WUHU21623XXSP,2013-05-02 00:21:00,
2013-05-01 17:26:00,62.1,41.5,30.48,NNW,337,0.0,0.0,47,0.00,,,0.00,WUHU21623XXSP,2013-05-02 00:26:00,
2013-05-01 17:31:00,61.9,41.3,30.49,NNW,337,0.0,0.0,47,0.00,,,0.00,WUHU21623XXSP,2013-05-02 00:31:00,
2013-05-01 17:36:00,61.7,41.2,30.49,SW,225,0.0,0.0,47,0.00,,,0.00,WUHU21623XXSP,2013-05-02 00:36:00,
2013-05-01 17:41:00,61.5,41.0,30.48,North,0,0.0,0.0,47,0.00,,,0.00,WUHU21623XXSP,2013-05-02 00:41:00,
2013-05-01 17:46:00,61.3,41.4,30.48,WNW,292,0.0,0.0,48,0.00,,,0.00,WUHU21623XXSP,2013-05-02 00:46:00,
2013-05-01 17:51:00,61.0,41.3,30.48,East,90,0.0,0.0,48,0.00,,,0.00,WUHU21623XXSP,2013-05-02 00:51:00,
2013-05-01 17:56:00,60.8,40.9,30.49,NW,315,0.0,0.0,48,0.00,,,0.00,WUHU21623XXSP,2013-05-02 00:56:00,
2013-05-01 18:01:00,60.6,41.3,30.49,NW,315,0.0,0.0,48,0.00,,,0.00,WUHU21623XXSP,2013-05-02 01:01:00,
2013-05-01 18:06:00,60.6,41.3,30.48,WNW,292,0.0,0.0,49,0.00,,,0.00,WUHU21623XXSP,2013-05-02 01:06:00,
2013-05-01 18:11:00,60.4,41.2,30.49,WSW,247,0.0,0.0,49,0.00,,,0.00,WUHU21623XXSP,2013-05-02 01:11:00,
2013-05-01 18:16:00,60.4,41.2,30.48,WSW,247,0.0,0.0,49,0.00,,,0.00,WUHU21623XXSP,2013-05-02 01:16:00,
2013-05-01 18:21:00,59.9,40.7,30.48,NNW,337,0.0,0.0,49,0.00,,,0.00,WUHU21623XXSP,2013-05-02 01:21:00,
2013-05-01 18:26:00,59.7,40.7,30.48,North,0,0.0,0.0,49,0.00,,,0.00,WUHU21623XXSP,2013-05-02 01:26:00,
2013-05-01 18:31:00,59.7,40.5,30.48,SW,225,0.0,0.0,49,0.00,,,0.00,WUHU21623XXSP,2013-05-02 01:31:00,
2013-05-01 18:36:00,59.5,40.9,30.48,SSW,202,0.0,0.0,50,0.00,,,0.00,WUHU21623XXSP,2013-05-02 01:36:00,
2013-05-01 18:41:00,59.4,40.8,30.48,North,0,0.0,0.0,50,0.00,,,0.00,WUHU21623XXSP,2013-05-02 01:41:00,
2013-05-01 18:46:00,59.2,40.6,30.48,SSW,202,0.0,0.0,50,0.00,,,0.00,WUHU21623XXSP,2013-05-02 01:46:00,
2013-05-01 18:51:00,58.8,40.3,30.48,NNW,337,0.0,0.0,50,0.00,,,0.00,WUHU21623XXSP,2013-05-02 01:51:00,
2013-05-01 18:56:00,58.8,40.3,30.48,NNW,337,0.0,0.0,50,0.00,,,0.00,WUHU21623XXSP,2013-05-02 01:56:00,
2013-05-01 19:01:00,58.6,40.6,30.48,NNW,337,0.0,0.0,51,0.00,,,0.00,WUHU21623XXSP,2013-05-02 02:01:00,
2013-05-01 19:06:00,58.5,40.4,30.48,NNW,337,0.0,0.0,51,0.00,,,0.00,WUHU21623XXSP,2013-05-02 02:06:00,
2013-05-01 19:11:00,58.5,40.4,30.48,NNW,337,0.0,0.0,51,0.00,,,0.00,WUHU21623XXSP,2013-05-02 02:11:00,
2013-05-01 19:16:00,58.3,40.3,30.48,NNW,337,0.0,0.0,51,0.00,,,0.00,WUHU21623XXSP,2013-05-02 02:16:00,
2013-05-01 19:21:00,58.1,40.1,30.48,NNW,337,0.0,0.0,51,0.00,,,0.00,WUHU21623XXSP,2013-05-02 02:21:00,
2013-05-01 19:26:00,58.1,40.1,30.48,NNW,337,0.0,0.0,51,0.00,,,0.00,WUHU21623XXSP,2013-05-02 02:26:00,
2013-05-01 19:31:00,57.9,40.4,30.48,WNW,292,0.0,0.0,52,0.00,,,0.00,WUHU21623XXSP,2013-05-02 02:31:00,
2013-05-01 19:36:00,57.6,40.6,30.48,WNW,292,0.0,0.0,53,0.00,,,0.00,WUHU21623XXSP,2013-05-02 02:36:00,
2013-05-01 19:41:00,57.4,40.9,30.48,WNW,292,0.0,0.0,54,0.00,,,0.00,WUHU21623XXSP,2013-05-02 02:41:00,
2013-05-01 19:46:00,57.0,40.7,30.48,WNW,292,0.0,0.0,54,0.00,,,0.00,WUHU21623XXSP,2013-05-02 02:46:00,
2013-05-01 19:51:00,56.8,40.8,30.48,WNW,292,0.0,0.0,55,0.00,,,0.00,WUHU21623XXSP,2013-05-02 02:51:00,
2013-05-01 19:56:00,56.5,40.6,30.48,WNW,292,0.0,0.0,56,0.00,,,0.00,WUHU21623XXSP,2013-05-02 02:56:00,
2013-05-01 20:01:00,56.1,40.6,30.48,WNW,292,0.0,0.0,56,0.00,,,0.00,WUHU21623XXSP,2013-05-02 03:01:00,
2013-05-01 20:06:00,55.4,40.8,30.48,WNW,292,0.0,0.0,58,0.00,,,0.00,WUHU21623XXSP,2013-05-02 03:06:00,
2013-05-01 20:11:00,55.0,40.5,30.48,WNW,292,0.0,0.0,58,0.00,,,0.00,WUHU21623XXSP,2013-05-02 03:11:00,
2013-05-01 20:16:00,54.5,40.4,30.48,WNW,292,0.0,0.0,59,0.00,,,0.00,WUHU21623XXSP,2013-05-02 03:16:00,
2013-05-01 20:21:00,54.0,40.4,30.48,WNW,292,0.0,0.0,60,0.00,,,0.00,WUHU21623XXSP,2013-05-02 03:21:00,
2013-05-01 20:26:00,53.8,40.3,30.48,WNW,292,0.0,0.0,60,0.00,,,0.00,WUHU21623XXSP,2013-05-02 03:26:00,
2013-05-01 20:31:00,53.4,40.3,30.49,SW,225,0.0,0.0,61,0.00,,,0.00,WUHU21623XXSP,2013-05-02 03:31:00,
2013-05-01 20:36:00,52.9,40.1,30.49,SW,225,0.0,0.0,61,0.00,,,0.00,WUHU21623XXSP,2013-05-02 03:36:00,
2013-05-01 20:41:00,52.7,39.6,30.49,SW,225,0.0,0.0,61,0.00,,,0.00,WUHU21623XXSP,2013-05-02 03:41:00,
2013-05-01 20:46:00,52.5,39.8,30.49,SW,225,0.0,0.0,62,0.00,,,0.00,WUHU21623XXSP,2013-05-02 03:46:00,
2013-05-01 20:51:00,52.0,39.3,30.49,SW,225,0.0,0.0,62,0.00,,,0.00,WUHU21623XXSP,2013-05-02 03:51:00,
2013-05-01 20:56:00,51.6,38.9,30.49,SW,225,0.0,0.0,62,0.00,,,0.00,WUHU21623XXSP,2013-05-02 03:56:00,
2013-05-01 21:01:00,51.3,39.2,30.49,SW,225,0.0,0.0,63,0.00,,,0.00,WUHU21623XXSP,2013-05-02 04:01:00,
2013-05-01 21:06:00,50.7,38.5,30.49,SW,225,0.0,0.0,63,0.00,,,0.00,WUHU21623XXSP,2013-05-02 04:06:00,
2013-05-01 21:11:00,50.5,38.9,30.49,SW,225,0.0,0.0,64,0.00,,,0.00,WUHU21623XXSP,2013-05-02 04:11:00,
2013-05-01 21:16:00,50.2,38.8,30.49,SW,225,0.0,0.0,65,0.00,,,0.00,WUHU21623XXSP,2013-05-02 04:16:00,
2013-05-01 21:21:00,49.8,38.9,30.50,SW,225,0.0,0.0,66,0.00,,,0.00,WUHU21623XXSP,2013-05-02 04:21:00,
2013-05-01 21:26:00,49.6,39.1,30.50,SW,225,0.0,0.0,67,0.00,,,0.00,WUHU21623XXSP,2013-05-02 04:26:00,
2013-05-01 21:31:00,49.1,38.6,30.50,SW,225,0.0,0.0,67,0.00,,,0.00,WUHU21623XXSP,2013-05-02 04:31:00,
2013-05-01 21:36:00,48.9,38.8,30.50,SW,225,0.0,0.0,68,0.00,,,0.00,WUHU21623XXSP,2013-05-02 04:36:00,
2013-05-01 21:41:00,48.7,38.6,30.50,SW,225,0.0,0.0,68,0.00,,,0.00,WUHU21623XXSP,2013-05-02 04:41:00,
2013-05-01 21:46:00,48.4,38.6,30.50,SW,225,0.0,0.0,69,0.00,,,0.00,WUHU21623XXSP,2013-05-02 04:46:00,
2013-05-01 21:51:00,48.2,38.6,30.50,SW,225,0.0,0.0,70,0.00,,,0.00,WUHU21623XXSP,2013-05-02 04:51:00,
2013-05-01 21:56:00,48.0,38.7,30.50,SW,225,0.0,0.0,70,0.00,,,0.00,WUHU21623XXSP,2013-05-02 04:56:00,
2013-05-01 22:01:00,47.8,38.5,30.50,SW,225,0.0,0.0,70,0.00,,,0.00,WUHU21623XXSP,2013-05-02 05:01:00,
2013-05-01 22:06:00,47.7,38.7,30.50,SW,225,0.0,0.0,71,0.00,,,0.00,WUHU21623XXSP,2013-05-02 05:06:00,
2013-05-01 22:11:00,47.5,38.5,30.51,SW,225,0.0,0.0,71,0.00,,,0.00,WUHU21623XXSP,2013-05-02 05:11:00,
2013-05-01 22:16:00,47.5,38.5,30.50,SW,225,0.0,0.0,71,0.00,,,0.00,WUHU21623XXSP,2013-05-02 05:16:00,
2013-05-01 22:21:00,47.3,38.7,30.50,SW,225,0.0,0.0,72,0.00,,,0.00,WUHU21623XXSP,2013-05-02 05:21:00,
2013-05-01 22:26:00,47.3,38.4,30.50,SW,225,0.0,0.0,71,0.00,,,0.00,WUHU21623XXSP,2013-05-02 05:26:00,
2013-05-01 22:31:00,47.1,38.6,30.50,SW,225,0.0,0.0,72,0.00,,,0.00,WUHU21623XXSP,2013-05-02 05:31:00,
2013-05-01 22:36:00,47.1,38.6,30.50,SW,225,0.0,0.0,72,0.00,,,0.00,WUHU21623XXSP,2013-05-02 05:36:00,
2013-05-01 22:41:00,47.1,38.6,30.50,SW,225,0.0,0.0,72,0.00,,,0.00,WUHU21623XXSP,2013-05-02 05:41:00,
2013-05-01 22:46:00,47.1,38.6,30.49,SW,225,0.0,0.0,72,0.00,,,0.00,WUHU21623XXSP,2013-05-02 05:46:00,
2013-05-01 22:51:00,46.9,38.4,30.49,SW,225,0.0,0.0,72,0.00,,,0.00,WUHU21623XXSP,2013-05-02 05:51:00,
2013-05-01 22:56:00,46.9,38.4,30.49,SW,225,0.0,0.0,72,0.00,,,0.00,WUHU21623XXSP,2013-05-02 05:56:00,
2013-05-01 23:01:00,46.8,38.6,30.50,SW,225,0.0,0.0,73,0.00,,,0.00,WUHU21623XXSP,2013-05-02 06:01:00,
2013-05-01 23:06:00,46.6,38.4,30.50,SW,225,0.0,0.0,73,0.00,,,0.00,WUHU21623XXSP,2013-05-02 06:06:00,
2013-05-01 23:11:00,46.6,38.8,30.50,SW,225,0.0,0.0,74,0.00,,,0.00,WUHU21623XXSP,2013-05-02 06:11:00,
2013-05-01 23:16:00,46.2,38.4,30.50,SW,225,0.0,0.0,74,0.00,,,0.00,WUHU21623XXSP,2013-05-02 06:16:00,
2013-05-01 23:22:00,46.2,38.4,30.50,SW,225,0.0,0.0,74,0.00,,,0.00,WUHU21623XXSP,2013-05-02 06:22:00,
2013-05-01 23:27:00,46.0,38.6,30.50,SW,225,0.0,0.0,75,0.00,,,0.00,WUHU21623XXSP,2013-05-02 06:27:00,
2013-05-01 23:32:00,45.9,38.4,30.50,SW,225,0.0,0.0,75,0.00,,,0.00,WUHU21623XXSP,2013-05-02 06:32:00,
2013-05-01 23:37:00,45.7,38.2,30.50,SW,225,0.0,0.0,75,0.00,,,0.00,WUHU21623XXSP,2013-05-02 06:37:00,
2013-05-01 23:42:00,45.7,38.6,30.50,SW,225,0.0,0.0,76,0.00,,,0.00,WUHU21623XXSP,2013-05-02 06:42:00,
2013-05-01 23:47:00,45.5,38.4,30.49,SW,225,0.0,0.0,76,0.00,,,0.00,WUHU21623XXSP,2013-05-02 06:47:00,
2013-05-01 23:52:00,45.3,38.2,30.49,SW,225,0.0,0.0,76,0.00,,,0.00,WUHU21623XXSP,2013-05-02 06:52:00,
2013-05-01 23:57:00,45.1,38.0,30.50,SW,225,0.0,0.0,76,0.00,,,0.00,WUHU21623XXSP,2013-05-02 06:57:00,